Oasis 700, Wind 020 degrees 10 knots. Cleared for take-off runway 07R.

You are here: Home Weather Center

[source: ADDS]
METAR
VHHH 170030Z 06007KT 8000 FEW020 SCT040 25/21 Q1013 NOSIG =
RCTP 170030Z 19006KT 140V250 8000 FEW020 26/18 Q1012 NOSIG RMK A2990 =
TAF
TAF VHHH 162300Z 1700/1806 09005KT 7000 FEW015 SCT040 TX28/1706Z TX29/1806Z TN23/1722Z BECMG 1703/1705 27010KT BECMG 1709/1711 12005KT TEMPO 1716/1722 4000 BR TEMPO 1722/1803 2500 BR BECMG 1803/1805 27010KT =
TAF RCTP 162305Z 1700/1806 22008KT 8000 FEW018 TEMPO 1700/1705 16005KT TEMPO 1712/1718 16005KT TEMPO 1718/1801 17005KT 4000 BR =

Image Captured from Google Map

ALL THE WEATHER INFO OF HONG KONG AIRPORT COMES FROM HONG KONG OBSERVATORY

TAF (機場天氣預報)

METAR/SPECI (機場天氣報告)

SIGMET (向航機發出的危險天氣警告)

Virtual Oasis Asia Airlines is a VA-Partner of VATSIM and is not affiliated with any real world airline or aviation organization. All the materials and information are for flight simulator ONLY and NOT for real world use.
Click here to view our VA Policy.

Copyright © Virtual Oasis Asia Airlines 2014 Downloaded from

Template by Templates for Joomla & Suknie Ślubne.